Anedigmi — 2BHF3 — position and weather

sailwx.info

Track history (hours):
 
Tides and Currents Weather Stations Pressure Air Temp Water Temp Dewpoint Dewpoint Depression Visibility Wind Speed Wind Dir Waves Ship Positions

Anedigmi

Last reported at 2014-Jul-19 08:24 UTC. Time now 2014-Jul-22 14:59 UTC.
Position N 43°44' E 007°26'.

Length 50 m; draft 3.1 m.

Type: Pleasure craft. MMSI: 235066107.

Date/timePositionNaut miles runAvg speedWind from/ knotsBaromVisibWave heightAir tempDewpointWater temp
2014-Jul-19 08:24N 43°44' E 007°26'5 0.2
2014-Jul-18 09:04N 43°42' E 007°20'2 3.9
2014-Jul-18 08:32N 43°40' E 007°19'6 4.5
2014-Jul-18 07:10N 43°39' E 007°11'0 0.6
2014-Jul-18 06:33N 43°39' E 007°11'1212.3
2014-Jul-18 05:33N 43°28' E 007°01'1313.2
2014-Jul-18 04:33N 43°21' E 006°47'8 1.6
2014-Jul-17 23:23N 43°16' E 006°37'0 0.0
2014-Jul-17 22:08N 43°16' E 006°37'0 0.0
2014-Jul-17 20:26N 43°16' E 006°37'0 0.0
2014-Jul-17 19:17N 43°16' E 006°37'0 0.1
2014-Jul-17 17:29N 43°16' E 006°37'4 4.7
2014-Jul-17 16:32N 43°16' E 006°43'2 1.2
2014-Jul-17 14:33N 43°14' E 006°40'0 0.0
2014-Jul-17 13:18N 43°14' E 006°40'0 0.0
2014-Jul-17 12:15N 43°14' E 006°40'0 0.0
2014-Jul-17 09:18N 43°14' E 006°40'3 4.0
2014-Jul-17 08:33N 43°17' E 006°38'1 0.0
2014-Jul-16 15:28N 43°16' E 006°38'3 3.8
2014-Jul-16 14:34N 43°17' E 006°43'5 0.8
2014-Jul-16 08:06N 43°12' E 006°42'5 9.7
2014-Jul-16 07:33N 43°17' E 006°41'3 2.6
2014-Jul-16 06:29N 43°16' E 006°37'0 0.0
2014-Jul-16 05:23N 43°16' E 006°37'0 0.0
2014-Jul-15 17:29N 43°16' E 006°37'6 0.7
2014-Jul-15 09:10N 43°12' E 006°42'5 8.9
2014-Jul-15 08:34N 43°17' E 006°39'1 0.9
2014-Jul-15 07:26N 43°16' E 006°38'0 0.0
2014-Jul-15 03:23N 43°16' E 006°38'0 0.0
2014-Jul-14 23:17N 43°16' E 006°38'0 0.0
2014-Jul-14 22:29N 43°16' E 006°38'0 0.0
2014-Jul-14 15:33N 43°16' E 006°38'3 3.0
2014-Jul-14 14:27N 43°13' E 006°40'0 0.0
2014-Jul-14 13:30N 43°14' E 006°40'0 0.0
2014-Jul-14 12:18N 43°13' E 006°40'0 0.0
2014-Jul-14 11:33N 43°13' E 006°40'0 0.0
2014-Jul-14 10:27N 43°13' E 006°40'0 0.0
2014-Jul-14 09:33N 43°13' E 006°40'4 3.7
2014-Jul-14 08:33N 43°17' E 006°40'2 1.6
2014-Jul-14 07:04N 43°16' E 006°37'0 0.0
2014-Jul-14 06:22N 43°16' E 006°37'0 0.0
2014-Jul-14 03:28N 43°16' E 006°37'0 0.0
2014-Jul-14 00:25N 43°16' E 006°37'0 0.0
2014-Jul-13 23:10N 43°16' E 006°37'0 0.0
2014-Jul-13 21:25N 43°16' E 006°37'0 0.0
2014-Jul-13 20:19N 43°16' E 006°37'0 0.0
2014-Jul-13 19:16N 43°16' E 006°37'1 0.4
2014-Jul-13 16:33N 43°17' E 006°38'4 3.0
2014-Jul-13 15:22N 43°14' E 006°40'0 0.0
2014-Jul-13 14:31N 43°14' E 006°40'0 0.0
2014-Jul-13 13:31N 43°14' E 006°40'0 0.0
2014-Jul-13 12:31N 43°14' E 006°40'0 0.0
2014-Jul-13 11:22N 43°14' E 006°40'0 0.0
2014-Jul-13 10:25N 43°14' E 006°40'0 0.0
2014-Jul-13 09:25N 43°14' E 006°40'0 0.0
2014-Jul-13 08:29N 43°13' E 006°40'4 4.0
2014-Jul-13 07:34N 43°16' E 006°37'0 0.0
2014-Jul-13 06:34N 43°16' E 006°37'0 0.0
2014-Jul-13 05:27N 43°16' E 006°37'0 0.0
2014-Jul-13 04:25N 43°16' E 006°37'0 0.0
2014-Jul-13 03:34N 43°16' E 006°37'0 0.0
2014-Jul-13 02:23N 43°16' E 006°37'0 0.0
2014-Jul-13 01:33N 43°16' E 006°37'0 0.0
2014-Jul-13 00:31N 43°16' E 006°37'0 0.0
2014-Jul-12 23:30N 43°16' E 006°37'0 0.0
2014-Jul-12 22:28N 43°16' E 006°37'0 0.0
2014-Jul-12 21:32N 43°16' E 006°37'0 0.0
2014-Jul-12 20:32N 43°16' E 006°37'0 0.0
2014-Jul-12 19:33N 43°16' E 006°37'0 0.0
2014-Jul-12 18:08N 43°16' E 006°37'0 0.0
2014-Jul-12 17:33N 43°16' E 006°37'0 0.0
2014-Jul-12 16:30N 43°16' E 006°37'0 0.0
2014-Jul-12 15:29N 43°16' E 006°37'2 2.6
2014-Jul-12 14:33N 43°17' E 006°40'4 3.5
2014-Jul-12 13:29N 43°13' E 006°40'0 0.0
2014-Jul-12 12:29N 43°13' E 006°40'0 0.0
2014-Jul-12 11:32N 43°13' E 006°40'0 0.0
2014-Jul-12 10:32N 43°13' E 006°40'0 0.0
2014-Jul-12 09:32N 43°13' E 006°40'0 0.0
2014-Jul-12 08:29N 43°13' E 006°40'0 0.0
2014-Jul-12 07:06N 43°13' E 006°40'5 8.6
2014-Jul-12 06:33N 43°15' E 006°46'1413.6
2014-Jul-12 05:33N 43°17' E 007°05'  
Track history (hours):
 
Tides and Currents Weather Stations Pressure Air Temp Water Temp Dewpoint Dewpoint Depression Visibility Wind Speed Wind Dir Waves Ship Positions

Anedigmi

Last reported at 2014-Jul-19 08:24 UTC. Time now 2014-Jul-22 14:59 UTC.
Position N 43°44' E 007°26'.

Length 50 m; draft 3.1 m.

Type: Pleasure craft. MMSI: 235066107.

Date/timePositionNaut miles runAvg speedWind from/ knotsBaromVisibWave heightAir tempDewpointWater temp
2014-Jul-19 08:24N 43°44' E 007°26'5 0.2
2014-Jul-18 09:04N 43°42' E 007°20'2 3.9
2014-Jul-18 08:32N 43°40' E 007°19'6 4.5
2014-Jul-18 07:10N 43°39' E 007°11'0 0.6
2014-Jul-18 06:33N 43°39' E 007°11'1212.3
2014-Jul-18 05:33N 43°28' E 007°01'1313.2
2014-Jul-18 04:33N 43°21' E 006°47'8 1.6
2014-Jul-17 23:23N 43°16' E 006°37'0 0.0
2014-Jul-17 22:08N 43°16' E 006°37'0 0.0
2014-Jul-17 20:26N 43°16' E 006°37'0 0.0
2014-Jul-17 19:17N 43°16' E 006°37'0 0.1
2014-Jul-17 17:29N 43°16' E 006°37'4 4.7
2014-Jul-17 16:32N 43°16' E 006°43'2 1.2
2014-Jul-17 14:33N 43°14' E 006°40'0 0.0
2014-Jul-17 13:18N 43°14' E 006°40'0 0.0
2014-Jul-17 12:15N 43°14' E 006°40'0 0.0
2014-Jul-17 09:18N 43°14' E 006°40'3 4.0
2014-Jul-17 08:33N 43°17' E 006°38'1 0.0
2014-Jul-16 15:28N 43°16' E 006°38'3 3.8
2014-Jul-16 14:34N 43°17' E 006°43'5 0.8
2014-Jul-16 08:06N 43°12' E 006°42'5 9.7
2014-Jul-16 07:33N 43°17' E 006°41'3 2.6
2014-Jul-16 06:29N 43°16' E 006°37'0 0.0
2014-Jul-16 05:23N 43°16' E 006°37'0 0.0
2014-Jul-15 17:29N 43°16' E 006°37'6 0.7
2014-Jul-15 09:10N 43°12' E 006°42'5 8.9
2014-Jul-15 08:34N 43°17' E 006°39'1 0.9
2014-Jul-15 07:26N 43°16' E 006°38'0 0.0
2014-Jul-15 03:23N 43°16' E 006°38'0 0.0
2014-Jul-14 23:17N 43°16' E 006°38'0 0.0
2014-Jul-14 22:29N 43°16' E 006°38'0 0.0
2014-Jul-14 15:33N 43°16' E 006°38'3 3.0
2014-Jul-14 14:27N 43°13' E 006°40'0 0.0
2014-Jul-14 13:30N 43°14' E 006°40'0 0.0
2014-Jul-14 12:18N 43°13' E 006°40'0 0.0
2014-Jul-14 11:33N 43°13' E 006°40'0 0.0
2014-Jul-14 10:27N 43°13' E 006°40'0 0.0
2014-Jul-14 09:33N 43°13' E 006°40'4 3.7
2014-Jul-14 08:33N 43°17' E 006°40'2 1.6
2014-Jul-14 07:04N 43°16' E 006°37'0 0.0
2014-Jul-14 06:22N 43°16' E 006°37'0 0.0
2014-Jul-14 03:28N 43°16' E 006°37'0 0.0
2014-Jul-14 00:25N 43°16' E 006°37'0 0.0
2014-Jul-13 23:10N 43°16' E 006°37'0 0.0
2014-Jul-13 21:25N 43°16' E 006°37'0 0.0
2014-Jul-13 20:19N 43°16' E 006°37'0 0.0
2014-Jul-13 19:16N 43°16' E 006°37'1 0.4
2014-Jul-13 16:33N 43°17' E 006°38'4 3.0
2014-Jul-13 15:22N 43°14' E 006°40'0 0.0
2014-Jul-13 14:31N 43°14' E 006°40'0 0.0
2014-Jul-13 13:31N 43°14' E 006°40'0 0.0
2014-Jul-13 12:31N 43°14' E 006°40'0 0.0
2014-Jul-13 11:22N 43°14' E 006°40'0 0.0
2014-Jul-13 10:25N 43°14' E 006°40'0 0.0
2014-Jul-13 09:25N 43°14' E 006°40'0 0.0
2014-Jul-13 08:29N 43°13' E 006°40'4 4.0
2014-Jul-13 07:34N 43°16' E 006°37'0 0.0
2014-Jul-13 06:34N 43°16' E 006°37'0 0.0
2014-Jul-13 05:27N 43°16' E 006°37'0 0.0
2014-Jul-13 04:25N 43°16' E 006°37'0 0.0
2014-Jul-13 03:34N 43°16' E 006°37'0 0.0
2014-Jul-13 02:23N 43°16' E 006°37'0 0.0
2014-Jul-13 01:33N 43°16' E 006°37'0 0.0
2014-Jul-13 00:31N 43°16' E 006°37'0 0.0
2014-Jul-12 23:30N 43°16' E 006°37'0 0.0
2014-Jul-12 22:28N 43°16' E 006°37'0 0.0
2014-Jul-12 21:32N 43°16' E 006°37'0 0.0
2014-Jul-12 20:32N 43°16' E 006°37'0 0.0
2014-Jul-12 19:33N 43°16' E 006°37'0 0.0
2014-Jul-12 18:08N 43°16' E 006°37'0 0.0
2014-Jul-12 17:33N 43°16' E 006°37'0 0.0
2014-Jul-12 16:30N 43°16' E 006°37'0 0.0
2014-Jul-12 15:29N 43°16' E 006°37'2 2.6
2014-Jul-12 14:33N 43°17' E 006°40'4 3.5
2014-Jul-12 13:29N 43°13' E 006°40'0 0.0
2014-Jul-12 12:29N 43°13' E 006°40'0 0.0
2014-Jul-12 11:32N 43°13' E 006°40'0 0.0
2014-Jul-12 10:32N 43°13' E 006°40'0 0.0
2014-Jul-12 09:32N 43°13' E 006°40'0 0.0
2014-Jul-12 08:29N 43°13' E 006°40'0 0.0
2014-Jul-12 07:06N 43°13' E 006°40'5 8.6
2014-Jul-12 06:33N 43°15' E 006°46'1413.6
2014-Jul-12 05:33N 43°17' E 007°05'  

Dump ship's entire track history